createdAt,value
2023-02-19T05:04:45.307Z,99345.19
2023-02-19T05:08:56.787Z,99351.91
2023-02-19T05:13:11.350Z,99357.66
2023-02-19T05:17:23.945Z,99361.34
2023-02-19T05:21:35.693Z,99363.81
2023-02-19T05:25:47.532Z,99366.00
2023-02-19T05:29:59.255Z,99377.06
2023-02-19T05:34:11.013Z,99377.34
2023-02-19T05:38:23.784Z,99388.75
2023-02-19T05:42:35.282Z,99381.09
2023-02-19T05:46:46.814Z,99387.38
2023-02-19T05:51:06.183Z,99394.75
2023-02-19T05:55:17.713Z,99397.63
2023-02-19T05:59:29.280Z,99410.53
2023-02-19T06:03:40.785Z,99402.75
2023-02-19T06:07:52.330Z,99414.22
2023-02-19T06:12:04.011Z,99403.28
2023-02-19T06:16:17.462Z,99409.56
2023-02-19T06:20:29.663Z,99412.06
2023-02-19T06:24:41.169Z,99427.97
2023-02-19T06:28:54.409Z,99418.91
2023-02-19T06:33:05.897Z,99431.22
2023-02-19T06:37:17.395Z,99440.97
2023-02-19T06:41:28.986Z,99434.78
2023-02-19T06:45:40.527Z,99445.44
2023-02-19T06:49:52.068Z,99463.31
2023-02-19T06:54:03.806Z,99460.00
2023-02-19T06:58:15.357Z,99461.66
2023-02-19T07:02:27.171Z,99458.63
2023-02-19T07:06:39.072Z,99471.66
2023-02-19T07:10:58.445Z,99476.72
2023-02-19T07:15:10.222Z,99491.25
2023-02-19T07:19:21.736Z,99493.56
2023-02-19T07:23:33.220Z,99502.19
2023-02-19T07:27:44.753Z,99507.69
2023-02-19T07:31:56.326Z,99507.69
2023-02-19T07:36:08.378Z,99504.13
2023-02-19T07:40:19.902Z,99502.19
2023-02-19T07:44:31.388Z,99521.41
2023-02-19T07:48:43.213Z,99514.28
2023-02-19T07:52:54.666Z,99521.00
2023-02-19T07:57:06.177Z,99522.47
2023-02-19T08:01:40.070Z,99538.41
2023-02-19T08:05:53.780Z,99529.75
2023-02-19T08:10:24.313Z,99533.75
2023-02-19T08:14:36.061Z,99542.22
2023-02-19T08:18:48.004Z,99542.22
2023-02-19T08:23:01.567Z,99542.22
2023-02-19T08:27:13.466Z,99556.63
2023-02-19T08:31:25.535Z,99556.75
2023-02-19T08:35:37.133Z,99563.34
2023-02-19T08:39:48.632Z,99563.06
2023-02-19T08:44:00.119Z,99568.84
2023-02-19T08:48:12.320Z,99570.19
2023-02-19T08:52:23.904Z,99570.19
2023-02-19T08:56:35.386Z,99575.66
2023-02-19T09:00:47.344Z,99585.25
2023-02-19T09:04:59.158Z,99579.75
2023-02-19T09:09:10.645Z,99592.13
2023-02-19T09:13:22.127Z,99597.72
2023-02-19T09:17:33.615Z,99593.75
2023-02-19T09:21:45.172Z,99602.09
2023-02-19T09:25:59.753Z,99610.34
2023-02-19T09:30:11.394Z,99611.28
2023-02-19T09:34:22.935Z,99610.03
2023-02-19T09:38:34.438Z,99612.63
2023-02-19T09:42:45.933Z,99629.53
2023-02-19T09:47:00.028Z,99635.28
2023-02-19T09:51:12.673Z,99630.31
2023-02-19T09:55:32.374Z,99641.16
2023-02-19T10:00:05.367Z,99656.56
2023-02-19T10:04:16.891Z,99650.91
2023-02-19T10:08:33.356Z,99651.84
2023-02-19T10:12:51.998Z,99651.69
2023-02-19T10:17:06.039Z,99644.44
2023-02-19T10:21:21.595Z,99651.00
2023-02-19T10:25:34.977Z,99658.69
2023-02-19T10:29:48.986Z,99660.66
2023-02-19T10:34:02.043Z,99671.38
2023-02-19T10:38:17.183Z,99673.00
2023-02-19T10:42:28.688Z,99675.06
2023-02-19T10:46:46.162Z,99673.16
2023-02-19T10:51:05.012Z,99677.16
2023-02-19T10:55:26.707Z,99671.50
2023-02-19T10:59:38.310Z,99673.59
2023-02-19T11:04:23.213Z,99673.81
2023-02-19T11:08:46.591Z,99657.72
2023-02-19T11:13:01.599Z,99656.94
2023-02-19T11:17:26.823Z,99674.81
2023-02-19T11:21:38.351Z,99676.13
2023-02-19T11:25:52.786Z,99683.28
2023-02-19T11:30:42.394Z,99669.06
2023-02-19T11:35:15.289Z,99673.59
2023-02-19T11:39:31.135Z,99681.00
2023-02-19T11:44:01.285Z,99675.72
2023-02-19T11:48:40.605Z,99674.16
2023-02-19T11:53:01.180Z,99691.06
2023-02-19T11:57:31.243Z,99685.38
2023-02-19T12:02:16.937Z,99692.91
2023-02-19T12:06:56.359Z,99687.97
2023-02-19T12:11:38.818Z,99683.22
2023-02-19T12:16:10.747Z,99671.13
2023-02-19T12:20:31.840Z,99665.06
2023-02-19T12:25:24.852Z,99677.31
2023-02-19T12:29:59.782Z,99686.66
2023-02-19T12:34:46.319Z,99700.81
2023-02-19T12:39:03.885Z,99689.16
2023-02-19T12:43:23.168Z,99697.41
2023-02-19T12:47:42.122Z,99701.28
2023-02-19T12:52:00.376Z,99684.72
2023-02-19T12:56:18.669Z,99691.44
2023-02-19T13:00:36.348Z,99688.47
2023-02-19T13:05:25.371Z,99691.44
2023-02-19T13:09:52.214Z,99690.09
2023-02-19T13:14:06.766Z,99696.09
2023-02-19T13:18:37.041Z,99682.94
2023-02-19T13:23:20.289Z,99683.91
2023-02-19T13:28:17.779Z,99673.09
2023-02-19T13:32:52.480Z,99672.13
2023-02-19T13:37:04.580Z,99663.97
2023-02-19T13:41:32.342Z,99649.88
2023-02-19T13:45:46.056Z,99640.75
2023-02-19T13:50:06.621Z,99639.78
2023-02-19T13:54:39.940Z,99650.16
2023-02-19T13:58:58.536Z,99657.03
2023-02-19T14:03:34.362Z,99657.72
2023-02-19T14:07:54.924Z,99650.22
2023-02-19T14:12:15.066Z,99643.06
2023-02-19T14:16:37.800Z,99631.72
2023-02-19T14:20:49.446Z,99631.50
2023-02-19T14:25:01.514Z,99652.75
2023-02-19T14:29:16.468Z,99653.59
2023-02-19T14:33:34.724Z,99648.50
2023-02-19T14:37:48.356Z,99659.03
2023-02-19T14:42:06.692Z,99672.00
2023-02-19T14:46:28.035Z,99676.88
2023-02-19T14:50:39.831Z,99668.75
2023-02-19T14:55:05.500Z,99676.88
2023-02-19T14:59:19.984Z,99668.81
2023-02-19T15:03:33.561Z,99678.13
2023-02-19T15:07:45.701Z,99689.16
2023-02-19T15:11:58.299Z,99702.22
2023-02-19T15:16:09.807Z,99706.22
2023-02-19T15:20:27.451Z,99719.84
2023-02-19T15:24:46.497Z,99709.00
2023-02-19T15:29:01.793Z,99701.03
2023-02-19T15:33:20.497Z,99714.34
2023-02-19T15:37:35.498Z,99726.28
2023-02-19T15:41:54.213Z,99735.00
2023-02-19T15:46:20.259Z,99734.72
2023-02-19T15:50:34.407Z,99733.16
2023-02-19T15:54:59.517Z,99738.38
2023-02-19T15:59:33.763Z,99726.59
2023-02-19T16:03:45.278Z,99748.69
2023-02-19T16:08:19.152Z,99759.53
2023-02-19T16:12:31.924Z,99748.44
2023-02-19T16:16:46.351Z,99742.69
2023-02-19T16:20:58.273Z,99744.59
2023-02-19T16:25:24.781Z,99739.00
2023-02-19T16:29:36.298Z,99737.63
2023-02-19T16:33:49.732Z,99730.06
2023-02-19T16:38:01.215Z,99718.97
2023-02-19T16:42:14.494Z,99712.09
2023-02-19T16:46:26.766Z,99710.19
2023-02-19T16:50:41.458Z,99710.59
2023-02-19T16:54:53.159Z,99718.59
2023-02-19T16:59:06.771Z,99721.88
2023-02-19T17:03:21.304Z,99723.81
2023-02-19T17:07:32.846Z,99715.59
2023-02-19T17:11:44.375Z,99725.59
2023-02-19T17:15:56.639Z,99736.72
2023-02-19T17:20:17.233Z,99741.66
2023-02-19T17:24:28.773Z,99739.72
2023-02-19T17:28:41.468Z,99742.34
2023-02-19T17:32:53.166Z,99744.81
2023-02-19T17:37:04.667Z,99747.72
2023-02-19T17:41:16.172Z,99758.97
2023-02-19T17:45:27.739Z,99762.53
2023-02-19T17:49:39.228Z,99771.31
2023-02-19T17:53:50.700Z,99784.22
2023-02-19T17:58:02.192Z,99800.00
2023-02-19T18:02:13.711Z,99817.44
2023-02-19T18:06:25.293Z,99809.59
2023-02-19T18:10:37.037Z,99817.44
2023-02-19T18:14:48.533Z,99822.53
2023-02-19T18:19:02.104Z,99821.81
2023-02-19T18:23:13.626Z,99827.75
2023-02-19T18:27:25.199Z,99834.97
2023-02-19T18:31:39.566Z,99848.44
2023-02-19T18:35:51.216Z,99850.09
2023-02-19T18:40:04.312Z,99852.97
2023-02-19T18:44:21.097Z,99864.09
2023-02-19T18:48:32.574Z,99858.31
2023-02-19T18:52:45.094Z,99859.41
2023-02-19T18:56:57.309Z,99864.63
2023-02-19T19:01:09.448Z,99857.63
2023-02-19T19:05:22.996Z,99855.84
2023-02-19T19:09:34.911Z,99859.66
2023-02-19T19:13:46.463Z,99860.50
2023-02-19T19:17:59.560Z,99868.59
2023-02-19T19:22:11.503Z,99886.00
2023-02-19T19:26:23.018Z,99887.91
2023-02-19T19:30:34.782Z,99885.31
2023-02-19T19:34:47.451Z,99874.63
2023-02-19T19:38:59.068Z,99866.13
2023-02-19T19:43:12.100Z,99871.59
2023-02-19T19:47:23.591Z,99866.50
2023-02-19T19:51:35.546Z,99853.19
2023-02-19T19:55:47.116Z,99860.72
2023-02-19T19:59:58.665Z,99856.59
2023-02-19T20:04:10.224Z,99855.53
2023-02-19T20:08:21.970Z,99850.56
2023-02-19T20:12:33.735Z,99859.91
2023-02-19T20:16:47.364Z,99868.38
2023-02-19T20:20:59.647Z,99881.66
2023-02-19T20:25:13.773Z,99899.53
2023-02-19T20:29:33.467Z,99893.50
2023-02-19T20:33:45.202Z,99888.56
2023-02-19T20:37:56.853Z,99879.06
2023-02-19T20:42:08.494Z,99885.91
2023-02-19T20:46:20.039Z,99879.84
2023-02-19T20:50:31.563Z,99892.22
2023-02-19T20:54:44.324Z,99896.44
2023-02-19T20:58:55.846Z,99893.56
2023-02-19T21:03:08.958Z,99887.53
2023-02-19T21:07:20.750Z,99896.53
2023-02-19T21:11:32.649Z,99890.75
2023-02-19T21:15:44.253Z,99882.69
2023-02-19T21:19:55.774Z,99884.16
2023-02-19T21:24:07.647Z,99892.50
2023-02-19T21:28:19.673Z,99888.16
2023-02-19T21:32:31.248Z,99899.69
2023-02-19T21:36:43.145Z,99910.72
2023-02-19T21:40:54.837Z,99899.84
2023-02-19T21:45:06.817Z,99917.88
2023-02-19T21:49:18.669Z,99918.38
2023-02-19T21:53:30.241Z,99913.44
2023-02-19T21:57:42.019Z,99916.53
2023-02-19T22:01:53.867Z,99922.56
2023-02-19T22:06:05.573Z,99922.22
2023-02-19T22:10:18.768Z,99929.31
2023-02-19T22:14:30.297Z,99934.31
2023-02-19T22:18:49.544Z,99928.28
2023-02-19T22:23:01.055Z,99930.47
2023-02-19T22:27:12.577Z,99943.97
